Terminal Aerodrome Forecast
Issued by NWS San Angelo, TX

Home | Current Version | Previous Version | Text Only | Print | Product List | Glossary On
Versions: 1 2 3 4 5 6 7 8 9 10 11 12 13 14 15 16 17 18 19 20 21 22 23 24 25 26 27
000
FTUS44 KSJT 030500
TAFABI
TAF
KABI 030539Z 0306/0406 16006KT 4SM BR OVC004
     FM031500 19015G23KT P6SM OVC008
     FM031800 20016G23KT P6SM BKN012
     FM032000 19012G18KT P6SM SCT020 BKN250=

USA.gov is the U.S. government's official web portal to all federal, state and local government web resources and services.